createdAt,value
2023-01-21T00:02:12.283Z,66.97
2023-01-21T00:04:40.793Z,63.97
2023-01-21T00:07:09.607Z,60.95
2023-01-21T00:09:38.731Z,60.75
2023-01-21T00:12:08.601Z,57.80
2023-01-21T00:14:37.184Z,53.85
2023-01-21T00:17:05.562Z,51.17
2023-01-21T00:19:34.269Z,71.30
2023-01-21T00:22:02.750Z,58.53
2023-01-21T00:24:30.988Z,60.30
2023-01-21T00:26:59.567Z,64.10
2023-01-21T00:29:29.370Z,56.00
2023-01-21T00:31:57.760Z,53.03
2023-01-21T00:34:26.461Z,49.55
2023-01-21T00:36:56.541Z,55.42
2023-01-21T00:39:25.138Z,55.13
2023-01-21T00:41:53.845Z,48.78
2023-01-21T00:44:22.497Z,49.67
2023-01-21T00:46:52.154Z,46.22
2023-01-21T00:49:21.162Z,53.55
2023-01-21T00:51:49.381Z,53.63
2023-01-21T00:54:17.635Z,45.40
2023-01-21T00:56:46.334Z,50.90
2023-01-21T00:59:17.154Z,48.55
2023-01-21T01:01:45.694Z,53.00
2023-01-21T01:04:16.016Z,56.15
2023-01-21T01:06:44.269Z,46.53
2023-01-21T01:09:13.339Z,51.38
2023-01-21T01:11:41.793Z,54.00
2023-01-21T01:14:10.295Z,57.92
2023-01-21T01:16:38.636Z,62.05
2023-01-21T01:19:07.101Z,55.83
2023-01-21T01:21:37.242Z,54.15
2023-01-21T01:24:06.459Z,52.10
2023-01-21T01:26:35.787Z,55.22
2023-01-21T01:29:05.217Z,63.65
2023-01-21T01:31:34.125Z,64.10
2023-01-21T01:34:02.648Z,59.75
2023-01-21T01:36:31.285Z,61.47
2023-01-21T01:39:01.687Z,61.75
2023-01-21T01:41:31.439Z,50.08
2023-01-21T01:44:02.790Z,58.67
2023-01-21T01:46:33.682Z,49.35
2023-01-21T01:49:13.140Z,50.70
2023-01-21T01:51:48.434Z,60.15
2023-01-21T01:54:23.003Z,55.08
2023-01-21T01:56:56.450Z,52.00
2023-01-21T01:59:25.563Z,61.80
2023-01-21T02:01:55.007Z,52.55
2023-01-21T02:04:30.794Z,67.43
2023-01-21T02:07:00.375Z,54.25
2023-01-21T02:09:31.563Z,51.60
2023-01-21T02:12:02.487Z,54.50
2023-01-21T02:14:32.125Z,54.95
2023-01-21T02:17:14.621Z,61.13
2023-01-21T02:20:42.611Z,58.20
2023-01-21T02:23:20.894Z,58.97
2023-01-21T02:26:35.792Z,62.42
2023-01-21T02:29:52.515Z,52.50
2023-01-21T02:32:45.764Z,65.43
2023-01-21T02:35:24.436Z,67.85
2023-01-21T02:38:03.009Z,61.92
2023-01-21T02:40:42.937Z,54.47
2023-01-21T02:43:19.594Z,59.13
2023-01-21T02:45:54.415Z,62.10
2023-01-21T02:48:30.539Z,63.33
2023-01-21T02:51:02.162Z,58.80
2023-01-21T02:53:32.926Z,54.77
2023-01-21T02:56:07.135Z,66.30
2023-01-21T02:58:41.880Z,63.67
2023-01-21T03:01:20.745Z,60.60
2023-01-21T03:04:19.773Z,60.67
2023-01-21T03:07:03.523Z,68.60
2023-01-21T03:09:33.901Z,64.47
2023-01-21T03:12:19.082Z,69.53
2023-01-21T03:15:13.835Z,66.68
2023-01-21T03:17:49.472Z,68.18
2023-01-21T03:20:25.734Z,66.03
2023-01-21T03:23:01.561Z,68.00
2023-01-21T03:25:33.030Z,64.63
2023-01-21T03:28:06.248Z,64.93
2023-01-21T03:30:37.247Z,71.55
2023-01-21T03:33:07.015Z,69.93
2023-01-21T03:35:42.302Z,75.43
2023-01-21T03:38:17.950Z,83.25
2023-01-21T03:40:53.990Z,74.05
2023-01-21T03:43:22.836Z,72.72
2023-01-21T03:45:58.671Z,83.20
2023-01-21T03:48:36.986Z,76.93
2023-01-21T03:51:11.320Z,68.57
2023-01-21T03:53:41.815Z,69.95
2023-01-21T03:56:10.311Z,71.07
2023-01-21T03:58:38.935Z,74.13
2023-01-21T04:01:07.642Z,63.97
2023-01-21T04:03:35.851Z,74.63
2023-01-21T04:06:04.625Z,55.70
2023-01-21T04:08:33.177Z,61.08
2023-01-21T04:11:03.186Z,65.07
2023-01-21T04:13:31.817Z,66.88
2023-01-21T04:16:00.551Z,63.00
2023-01-21T04:18:29.030Z,59.55
2023-01-21T04:20:57.623Z,63.10
2023-01-21T04:23:26.390Z,66.78
2023-01-21T04:25:55.059Z,62.88
2023-01-21T04:28:25.146Z,61.22
2023-01-21T04:30:54.069Z,74.38
2023-01-21T04:33:23.061Z,70.32
2023-01-21T04:35:51.549Z,71.18
2023-01-21T04:38:20.399Z,63.22
2023-01-21T04:40:49.115Z,67.05
2023-01-21T04:43:17.933Z,72.72
2023-01-21T04:45:48.092Z,79.13
2023-01-21T04:48:16.877Z,81.15
2023-01-21T04:50:45.513Z,84.97
2023-01-21T04:53:14.211Z,96.90
2023-01-21T04:55:42.634Z,95.53
2023-01-21T04:58:11.153Z,88.50
2023-01-21T05:00:39.818Z,99.95
2023-01-21T05:03:09.971Z,93.47
2023-01-21T05:05:38.788Z,92.60
2023-01-21T05:08:07.894Z,71.35
2023-01-21T05:10:36.437Z,81.47
2023-01-21T05:13:05.011Z,89.78
2023-01-21T05:15:33.708Z,98.57
2023-01-21T05:18:02.221Z,78.88
2023-01-21T05:20:32.281Z,77.68
2023-01-21T05:23:00.808Z,62.38
2023-01-21T05:25:29.329Z,83.28
2023-01-21T05:27:57.760Z,67.70
2023-01-21T05:30:26.434Z,86.15
2023-01-21T05:32:55.918Z,69.35
2023-01-21T05:35:25.625Z,77.78
2023-01-21T05:37:55.709Z,77.35
2023-01-21T05:40:24.418Z,81.78
2023-01-21T05:42:52.917Z,76.97
2023-01-21T05:45:21.883Z,77.22
2023-01-21T05:47:50.283Z,72.80
2023-01-21T05:50:18.956Z,90.57
2023-01-21T05:52:47.714Z,101.78
2023-01-21T05:55:18.112Z,159.18
2023-01-21T05:57:46.367Z,226.20
2023-01-21T06:00:17.013Z,247.98
2023-01-21T06:02:45.774Z,190.90
2023-01-21T06:05:14.328Z,718.38
2023-01-21T06:07:42.923Z,387.40
2023-01-21T06:10:12.373Z,947.33
2023-01-21T06:12:42.561Z,541.83
2023-01-21T06:15:12.294Z,173.02
2023-01-21T06:17:41.165Z,139.00
2023-01-21T06:20:12.245Z,162.65
2023-01-21T06:22:40.968Z,167.27
2023-01-21T06:25:10.519Z,161.85
2023-01-21T06:27:41.553Z,914.70
2023-01-21T06:30:12.663Z,211.95
2023-01-21T06:32:41.385Z,320.70
2023-01-21T06:35:10.580Z,367.60
2023-01-21T06:37:38.832Z,1221.80
2023-01-21T06:40:09.112Z,971.88
2023-01-21T06:42:37.613Z,654.38
2023-01-21T06:45:09.856Z,364.55
2023-01-21T06:47:40.537Z,170.07
2023-01-21T06:50:11.516Z,261.65
2023-01-21T06:52:41.743Z,284.20
2023-01-21T06:55:11.438Z,585.85
2023-01-21T06:57:40.866Z,939.25
2023-01-21T07:00:13.966Z,585.72
2023-01-21T07:02:42.636Z,947.20
2023-01-21T07:05:11.370Z,171.10
2023-01-21T07:07:39.928Z,200.10
2023-01-21T07:10:10.228Z,301.15
2023-01-21T07:12:38.651Z,441.02
2023-01-21T07:15:11.379Z,155.23
2023-01-21T07:17:39.927Z,612.33
2023-01-21T07:20:12.442Z,331.48
2023-01-21T07:22:41.210Z,564.05
2023-01-21T07:25:10.615Z,212.68
2023-01-21T07:27:39.213Z,274.05
2023-01-21T07:30:15.861Z,294.00
2023-01-21T07:32:44.357Z,654.08
2023-01-21T07:35:13.046Z,188.30
2023-01-21T07:37:41.989Z,174.05
2023-01-21T07:40:11.938Z,171.93
2023-01-21T07:42:40.529Z,292.55
2023-01-21T07:45:12.084Z,203.13
2023-01-21T07:47:40.858Z,130.15
2023-01-21T07:50:12.611Z,106.18
2023-01-21T07:52:40.977Z,98.20
2023-01-21T07:55:12.567Z,92.70
2023-01-21T07:57:41.394Z,89.38
2023-01-21T08:00:15.579Z,84.25
2023-01-21T08:02:43.932Z,88.95
2023-01-21T08:05:13.124Z,95.75
2023-01-21T08:07:41.813Z,112.78
2023-01-21T08:10:12.013Z,93.63
2023-01-21T08:12:42.913Z,82.82
2023-01-21T08:15:13.396Z,70.57
2023-01-21T08:17:44.713Z,65.13
2023-01-21T08:20:15.454Z,64.60
2023-01-21T08:22:44.052Z,64.22
2023-01-21T08:25:13.327Z,62.05
2023-01-21T08:27:41.740Z,67.40
2023-01-21T08:30:13.409Z,71.50
2023-01-21T08:32:42.056Z,75.30
2023-01-21T08:35:11.472Z,73.03
2023-01-21T08:37:40.404Z,70.80
2023-01-21T08:40:10.740Z,69.28
2023-01-21T08:42:39.523Z,60.60
2023-01-21T08:45:09.626Z,63.15
2023-01-21T08:47:39.291Z,54.13
2023-01-21T08:50:09.565Z,68.75
2023-01-21T08:52:38.111Z,60.17
2023-01-21T08:55:08.302Z,62.67
2023-01-21T08:57:38.398Z,60.03
2023-01-21T09:00:09.050Z,58.45
2023-01-21T09:02:39.027Z,56.50
2023-01-21T09:05:09.254Z,60.13
2023-01-21T09:07:37.697Z,61.45
2023-01-21T09:10:07.143Z,54.58
2023-01-21T09:12:36.385Z,63.88
2023-01-21T09:15:05.408Z,70.72
2023-01-21T09:17:34.449Z,72.95
2023-01-21T09:20:04.585Z,84.00
2023-01-21T09:22:33.184Z,77.50
2023-01-21T09:25:10.165Z,80.75
2023-01-21T09:27:38.544Z,89.65
2023-01-21T09:30:09.066Z,80.60
2023-01-21T09:32:37.859Z,96.90
2023-01-21T09:35:09.609Z,92.47
2023-01-21T09:37:38.459Z,97.03
2023-01-21T09:40:08.758Z,122.00
2023-01-21T09:42:37.185Z,92.82
2023-01-21T09:45:06.967Z,104.05
2023-01-21T09:47:42.221Z,120.95
2023-01-21T09:50:17.369Z,129.68
2023-01-21T09:52:48.777Z,137.23
2023-01-21T09:55:20.787Z,126.85
2023-01-21T09:58:17.707Z,146.90
2023-01-21T10:00:52.952Z,141.85
2023-01-21T10:03:31.080Z,131.75
2023-01-21T10:06:35.305Z,124.03
2023-01-21T10:09:40.557Z,110.80
2023-01-21T10:12:26.995Z,135.10
2023-01-21T10:15:26.591Z,113.65
2023-01-21T10:17:59.923Z,100.35
2023-01-21T10:20:32.471Z,114.90
2023-01-21T10:25:38.801Z,113.50
2023-01-21T10:28:15.444Z,98.47
2023-01-21T10:30:50.357Z,109.45
2023-01-21T10:33:22.643Z,119.50
2023-01-21T10:36:25.313Z,101.53
2023-01-21T10:39:08.851Z,89.22
2023-01-21T10:42:11.927Z,96.60
2023-01-21T10:44:52.239Z,96.32
2023-01-21T10:47:32.385Z,80.93
2023-01-21T10:50:15.743Z,88.00
2023-01-21T10:52:51.796Z,91.32
2023-01-21T10:55:36.895Z,84.90
2023-01-21T10:58:12.221Z,81.00
2023-01-21T11:00:47.512Z,85.85
2023-01-21T11:03:29.498Z,88.07
2023-01-21T11:06:00.856Z,84.13
2023-01-21T11:08:29.694Z,90.43
2023-01-21T11:11:00.723Z,91.32
2023-01-21T11:13:29.220Z,96.63
2023-01-21T11:16:00.364Z,89.22
2023-01-21T11:18:33.046Z,90.82
2023-01-21T11:23:34.871Z,86.43
2023-01-21T11:26:16.633Z,86.47
2023-01-21T11:28:45.783Z,89.15
2023-01-21T11:31:17.337Z,84.53
2023-01-21T11:33:48.129Z,94.47
2023-01-21T11:36:19.337Z,88.78
2023-01-21T11:38:59.676Z,85.90
2023-01-21T11:41:29.872Z,79.95
2023-01-21T11:44:11.875Z,77.90
2023-01-21T11:46:41.691Z,80.45
2023-01-21T11:49:32.754Z,73.80
2023-01-21T11:52:22.002Z,68.82
2023-01-21T11:54:50.500Z,68.10
2023-01-21T11:57:28.542Z,63.97
2023-01-21T12:00:06.141Z,59.88
2023-01-21T12:02:45.509Z,126.25
2023-01-21T12:05:23.817Z,64.32
2023-01-21T12:07:53.405Z,70.03
2023-01-21T12:10:30.776Z,60.22
2023-01-21T12:13:21.301Z,61.75
2023-01-21T12:16:25.818Z,63.78
2023-01-21T12:19:30.064Z,57.13
2023-01-21T12:22:40.371Z,62.67
2023-01-21T12:25:24.462Z,63.70
2023-01-21T12:28:08.869Z,69.95
2023-01-21T12:30:52.185Z,69.30
2023-01-21T12:33:37.014Z,67.40
2023-01-21T12:36:13.870Z,73.30
2023-01-21T12:38:47.337Z,65.22
2023-01-21T12:41:21.610Z,72.15
2023-01-21T12:43:55.895Z,62.85
2023-01-21T12:46:32.742Z,70.53
2023-01-21T12:49:09.237Z,71.40
2023-01-21T12:51:42.456Z,64.05
2023-01-21T12:54:19.014Z,63.60
2023-01-21T12:56:54.603Z,64.93
2023-01-21T12:59:31.356Z,59.97
2023-01-21T13:02:13.195Z,57.22
2023-01-21T13:04:50.461Z,65.47
2023-01-21T13:07:35.723Z,62.53
2023-01-21T13:10:16.730Z,63.05
2023-01-21T13:12:51.167Z,61.28
2023-01-21T13:15:23.133Z,65.65
2023-01-21T13:17:58.681Z,68.85
2023-01-21T13:20:29.177Z,59.45
2023-01-21T13:23:09.026Z,69.80
2023-01-21T13:25:46.044Z,57.20
2023-01-21T13:28:23.516Z,66.88
2023-01-21T13:31:01.587Z,71.75
2023-01-21T13:33:43.659Z,68.82
2023-01-21T13:36:35.751Z,87.00
2023-01-21T13:39:12.482Z,75.38
2023-01-21T13:41:59.678Z,74.93
2023-01-21T13:45:13.419Z,72.80
2023-01-21T13:48:02.939Z,78.80
2023-01-21T13:50:49.997Z,80.38
2023-01-21T13:54:11.585Z,77.30
2023-01-21T13:57:04.468Z,69.72
2023-01-21T13:59:38.459Z,79.10
2023-01-21T14:02:11.236Z,69.38
2023-01-21T14:04:48.139Z,74.25
2023-01-21T14:07:23.809Z,71.72
2023-01-21T14:09:57.186Z,70.43
2023-01-21T14:13:12.083Z,79.57
2023-01-21T14:16:08.200Z,82.55
2023-01-21T14:18:56.887Z,76.75
2023-01-21T14:21:50.161Z,64.47
2023-01-21T14:24:42.873Z,76.72
2023-01-21T14:27:25.949Z,76.45
2023-01-21T14:30:04.351Z,79.35
2023-01-21T14:32:42.312Z,81.10
2023-01-21T14:35:20.912Z,76.45
2023-01-21T14:37:57.202Z,81.45
2023-01-21T14:40:31.357Z,89.05
2023-01-21T14:43:00.195Z,83.30
2023-01-21T14:45:54.184Z,83.93
2023-01-21T14:48:34.316Z,98.32
2023-01-21T14:51:14.234Z,79.50
2023-01-21T14:53:49.361Z,84.32
2023-01-21T14:56:24.842Z,95.53
2023-01-21T14:58:56.864Z,88.03
2023-01-21T15:01:38.006Z,88.40
2023-01-21T15:04:21.328Z,162.75
2023-01-21T15:06:58.086Z,93.22
2023-01-21T15:09:33.363Z,80.78
2023-01-21T15:12:10.750Z,85.45
2023-01-21T15:14:46.063Z,77.90
2023-01-21T15:17:45.833Z,254.15
2023-01-21T15:20:49.498Z,100.68
2023-01-21T15:23:29.484Z,188.25
2023-01-21T15:26:18.220Z,94.60
2023-01-21T15:28:52.143Z,95.22
2023-01-21T15:31:45.233Z,93.88
2023-01-21T15:34:16.811Z,86.95
2023-01-21T15:36:47.740Z,89.90
2023-01-21T15:39:18.937Z,92.03
2023-01-21T15:42:05.087Z,87.93
2023-01-21T15:45:00.922Z,94.47
2023-01-21T15:48:01.065Z,85.95
2023-01-21T15:50:36.839Z,80.30
2023-01-21T15:53:40.843Z,82.30
2023-01-21T15:56:28.219Z,83.85
2023-01-21T15:59:09.001Z,82.68
2023-01-21T16:01:41.087Z,77.32
2023-01-21T16:04:32.748Z,81.38
2023-01-21T16:07:21.863Z,76.90
2023-01-21T16:10:04.320Z,81.43
2023-01-21T16:12:45.620Z,81.40
2023-01-21T16:15:22.975Z,79.50
2023-01-21T16:18:07.727Z,79.95
2023-01-21T16:20:36.342Z,76.35
2023-01-21T16:23:08.882Z,84.93
2023-01-21T16:25:47.159Z,77.00
2023-01-21T16:28:15.818Z,72.60
2023-01-21T16:30:55.161Z,74.85
2023-01-21T16:33:25.468Z,74.53
2023-01-21T16:35:57.330Z,73.32
2023-01-21T16:38:27.820Z,74.20
2023-01-21T16:41:27.643Z,88.80
2023-01-21T16:44:00.409Z,81.47
2023-01-21T16:49:04.792Z,73.13
2023-01-21T16:51:37.114Z,65.00
2023-01-21T16:54:30.028Z,70.25
2023-01-21T16:57:01.153Z,61.28
2023-01-21T16:59:38.181Z,71.53
2023-01-21T17:02:17.961Z,62.63
2023-01-21T17:04:47.897Z,66.85
2023-01-21T17:07:24.048Z,60.45
2023-01-21T17:10:00.029Z,56.88
2023-01-21T17:12:31.312Z,62.33
2023-01-21T17:15:04.426Z,78.32
2023-01-21T17:17:37.286Z,57.75
2023-01-21T17:20:26.237Z,56.38
2023-01-21T17:22:54.993Z,52.42
2023-01-21T17:25:26.487Z,52.85
2023-01-21T17:27:56.960Z,58.55
2023-01-21T17:30:32.457Z,55.88
2023-01-21T17:33:03.724Z,58.33
2023-01-21T17:35:34.143Z,54.10
2023-01-21T17:38:04.572Z,52.75
2023-01-21T17:40:36.839Z,58.92
2023-01-21T17:43:21.831Z,50.42
2023-01-21T17:45:52.854Z,54.22
2023-01-21T17:48:27.979Z,51.95
2023-01-21T17:51:07.862Z,49.15
2023-01-21T17:53:41.624Z,48.70
2023-01-21T17:56:10.432Z,51.45
2023-01-21T17:58:51.467Z,48.58
2023-01-21T18:01:22.200Z,52.20
2023-01-21T18:03:50.593Z,52.72
2023-01-21T18:06:27.403Z,54.05
2023-01-21T18:08:58.039Z,57.60
2023-01-21T18:11:26.768Z,60.42
2023-01-21T18:13:55.397Z,67.75
2023-01-21T18:16:23.887Z,66.28
2023-01-21T18:18:54.250Z,66.68
2023-01-21T18:21:24.463Z,56.05
2023-01-21T18:23:53.063Z,61.63
2023-01-21T18:26:29.264Z,63.75
2023-01-21T18:28:57.761Z,63.35
2023-01-21T18:31:27.748Z,64.38
2023-01-21T18:33:56.540Z,56.10
2023-01-21T18:36:26.829Z,63.03
2023-01-21T18:38:55.346Z,59.10
2023-01-21T18:41:24.079Z,49.25
2023-01-21T18:43:52.493Z,47.33
2023-01-21T18:46:22.633Z,44.53
2023-01-21T18:48:54.173Z,42.40
2023-01-21T18:51:29.444Z,46.58
2023-01-21T18:54:00.416Z,45.63
2023-01-21T18:56:30.648Z,49.10
2023-01-21T18:59:00.360Z,49.47
2023-01-21T19:01:30.545Z,43.25
2023-01-21T19:03:59.094Z,42.28
2023-01-21T19:06:29.505Z,40.13
2023-01-21T19:09:00.436Z,41.13
2023-01-21T19:11:28.948Z,43.97
2023-01-21T19:13:57.276Z,45.38
2023-01-21T19:16:25.984Z,43.25
2023-01-21T19:19:10.767Z,49.97
2023-01-21T19:21:41.476Z,44.63
2023-01-21T19:24:12.043Z,48.03
2023-01-21T19:26:41.016Z,48.08
2023-01-21T19:29:14.888Z,50.20
2023-01-21T19:31:43.437Z,55.40
2023-01-21T19:34:11.888Z,61.55
2023-01-21T19:36:41.711Z,53.22
2023-01-21T19:39:19.075Z,55.88
2023-01-21T19:41:48.594Z,53.28
2023-01-21T19:44:19.430Z,47.47
2023-01-21T19:46:48.172Z,45.95
2023-01-21T19:49:18.500Z,44.67
2023-01-21T19:51:48.225Z,51.22
2023-01-21T19:54:17.081Z,51.05
2023-01-21T19:56:45.595Z,52.78
2023-01-21T19:59:16.950Z,42.85
2023-01-21T20:01:45.628Z,39.17
2023-01-21T20:04:14.314Z,48.33
2023-01-21T20:06:44.692Z,46.63
2023-01-21T20:09:17.738Z,43.03
2023-01-21T20:11:46.207Z,43.03
2023-01-21T20:14:14.513Z,54.15
2023-01-21T20:16:49.854Z,49.47
2023-01-21T20:19:19.657Z,49.50
2023-01-21T20:21:59.875Z,54.28
2023-01-21T20:24:33.896Z,46.88
2023-01-21T20:27:06.663Z,48.50
2023-01-21T20:29:44.459Z,44.35
2023-01-21T20:32:12.963Z,45.40
2023-01-21T20:34:41.117Z,43.15
2023-01-21T20:37:12.070Z,46.20
2023-01-21T20:39:42.074Z,47.88
2023-01-21T20:42:13.092Z,48.65
2023-01-21T20:44:41.401Z,48.88
2023-01-21T20:47:12.345Z,54.22
2023-01-21T20:49:40.767Z,68.30
2023-01-21T20:52:11.854Z,51.83
2023-01-21T20:54:41.644Z,57.20
2023-01-21T20:57:13.950Z,52.58
2023-01-21T20:59:42.491Z,52.47
2023-01-21T21:02:12.563Z,51.40
2023-01-21T21:04:42.056Z,53.30
2023-01-21T21:07:16.659Z,53.22
2023-01-21T21:09:46.466Z,62.42
2023-01-21T21:12:14.863Z,55.22
2023-01-21T21:14:43.327Z,55.45
2023-01-21T21:17:13.377Z,61.03
2023-01-21T21:19:41.874Z,61.90
2023-01-21T21:22:10.850Z,59.20
2023-01-21T21:24:39.133Z,62.00
2023-01-21T21:27:12.377Z,61.72
2023-01-21T21:29:40.673Z,56.78
2023-01-21T21:32:13.468Z,64.65
2023-01-21T21:34:42.935Z,58.75
2023-01-21T21:37:14.582Z,60.33
2023-01-21T21:39:43.078Z,66.40
2023-01-21T21:42:32.685Z,65.68
2023-01-21T21:45:01.016Z,63.95
2023-01-21T21:47:47.096Z,58.72
2023-01-21T21:50:16.315Z,59.13
2023-01-21T21:52:44.709Z,62.42
2023-01-21T21:55:15.719Z,63.10
2023-01-21T21:57:45.765Z,60.15
2023-01-21T22:00:16.008Z,56.63
2023-01-21T22:02:44.304Z,60.28
2023-01-21T22:05:12.906Z,65.43
2023-01-21T22:07:41.239Z,58.70
2023-01-21T22:10:13.787Z,65.28
2023-01-21T22:12:42.371Z,66.15
2023-01-21T22:15:13.690Z,65.35
2023-01-21T22:17:42.366Z,65.45
2023-01-21T22:20:13.013Z,70.03
2023-01-21T22:22:41.394Z,73.95
2023-01-21T22:25:11.863Z,71.78
2023-01-21T22:27:40.278Z,73.75
2023-01-21T22:30:13.293Z,79.93
2023-01-21T22:32:41.559Z,80.05
2023-01-21T22:35:10.589Z,76.45
2023-01-21T22:37:39.339Z,69.20
2023-01-21T22:40:12.580Z,73.22
2023-01-21T22:42:41.305Z,79.78
2023-01-21T22:45:12.802Z,82.15
2023-01-21T22:47:41.083Z,80.72
2023-01-21T22:50:11.801Z,83.00
2023-01-21T22:52:40.398Z,90.78
2023-01-21T22:55:09.835Z,86.82
2023-01-21T22:57:38.093Z,77.88
2023-01-21T23:00:10.509Z,88.40
2023-01-21T23:02:40.410Z,88.40
2023-01-21T23:05:09.857Z,85.70
2023-01-21T23:07:38.468Z,87.53
2023-01-21T23:10:07.488Z,96.30
2023-01-21T23:12:35.744Z,88.05
2023-01-21T23:15:03.989Z,105.60
2023-01-21T23:17:32.496Z,93.18
2023-01-21T23:20:02.044Z,100.13
2023-01-21T23:22:30.749Z,97.47
2023-01-21T23:24:59.185Z,108.15
2023-01-21T23:27:27.629Z,107.10
2023-01-21T23:29:55.931Z,110.43
2023-01-21T23:32:24.176Z,103.72
2023-01-21T23:34:52.460Z,108.38
2023-01-21T23:37:22.345Z,108.38
2023-01-21T23:39:50.616Z,110.57
2023-01-21T23:42:19.403Z,117.47
2023-01-21T23:44:47.616Z,108.10
2023-01-21T23:47:16.395Z,118.25
2023-01-21T23:49:45.041Z,101.65
2023-01-21T23:52:13.492Z,113.55
2023-01-21T23:54:45.048Z,107.15
2023-01-21T23:57:14.285Z,109.78
2023-01-21T23:59:42.881Z,107.20
